Aérodrome :
LOGIN :

S'inscrire | Disclaimer

   EN    FR    IT 

 










Légende :    VFR   VFR Marginal   IFR   IFR Intensif   IFR Très Intensif
Visi : 
Plafond : 
>= 8 km
>= 3000ft
5 à 8 km
1000 à 3000 ft
1500m à 5 km
500 à 1000 ft
800 à 1500m
200 à 500 ft
< 800m
< 200 ft
Symboles :   Orages  Brouillard  Fortes neiges  Fortes précipitations  Vent > 20 kt
SIGMETs :   Divers  Orages  Givrage  Turbulence  Onde Orograph.  Cendres Volcan.






- Altitude de l'aérodrome : 273 ft


EGXT - RAF Wittering Stamford

DERNIER METAR :
  • 300950Z 35011KT 9999 FEW018 BKN020 06/02 Q1034 RMK WHT

METARs EXPIRÉS :
  • 300850Z 34012KT 9999 BKN027 SCT050 06/02 Q1035 RMK BLU
  • 300827Z 34012KT 9999 SCT027 BKN031 BKN050 05/02 Q1035 RMK BLU
  • 300750Z 34010KT 9999 -RA BKN016 SCT027 BKN050 05/02 Q1035 RMK WHT

TAF TAF EGXT
Valide du 30 à 09h jusqu'au 30 à 18h UTC


300756Z 3009/3018 36012KT 9999 FEW018 BKN045
TEMPO 3009/3018 SCT018
PROB30
TEMPO 3009/3018 7000 SHRA BKN014
TEMPO 3011/3018 03015G25KT



MET'MAP, la Météo Aéronautique d'un coup d'oeil ! - Copyright ORBIFLY Décembre 2007 - Disclaimer

ORBIFLY MET'MAP TEAM :

Programmation & Développement : Alexandra Zaïnal
Sur une idée originale de : Baudouin d'Aumeries
Assistance à la programmation : Marc-Olivier Méhu
Soutien technique & logistique : Manuel Goepfert

Contact : metmap@orbifly.com




SOURCES & CREDITS :

   NOAA